Time;durP1;ratioP1;P1;durP2;ratioP2;P2;SDS_P1;SDS_P2;PMS_P1;PMS_P2;Temp;Humidity;BMP_temperature;BMP_pressure;BME280_temperature;BME280_humidity;BME280_pressure;Samples;Min_cycle;Max_cycle;Signal;HPM_P1;HPM_P2
2022/07/31 00:07:10;;;;;;;35.17;5.93;;;17.60;99.90;;;;;;20801088;28;20068;-80
2022/07/31 00:17:11;;;;;;;13.63;3.87;;;17.60;99.90;;;;;;20803899;28;20164;-79
2022/07/31 00:27:12;;;;;;;10.97;5.40;;;17.00;99.90;;;;;;20790348;28;20042;-82
2022/07/31 00:37:13;;;;;;;9.00;4.33;;;17.00;99.90;;;;;;20793049;28;20034;-79
2022/07/31 00:47:15;;;;;;;15.37;4.63;;;16.90;99.90;;;;;;20787728;28;20040;-81
2022/07/31 00:57:16;;;;;;;26.38;3.97;;;16.80;99.90;;;;;;20792261;28;20467;-81
2022/07/31 01:07:16;;;;;;;18.40;8.53;;;16.60;99.90;;;;;;20791669;28;20117;-81
2022/07/31 01:17:21;;;;;;;18.03;7.87;;;16.60;99.90;;;;;;20778371;28;20029;-81
2022/07/31 01:27:37;;;;;;;56.80;23.88;;;16.10;99.90;;;;;;20806826;28;20543;-80
2022/07/31 01:37:48;;;;;;;64.53;24.50;;;16.00;99.90;;;;;;20796278;28;20045;-80
2022/07/31 01:47:51;;;;;;;20.65;10.10;;;16.10;99.90;;;;;;20781936;28;20088;-81
2022/07/31 01:57:54;;;;;;;18.42;6.82;;;15.90;99.90;;;;;;20771460;28;20033;-81
2022/07/31 02:07:55;;;;;;;14.90;6.90;;;16.20;99.90;;;;;;20786435;28;20093;-82
2022/07/31 02:18:00;;;;;;;15.23;7.35;;;16.50;99.90;;;;;;20789987;28;20037;-81
2022/07/31 02:28:32;;;;;;;11.45;4.47;;;16.70;99.90;;;;;;20799580;28;20033;-81
2022/07/31 02:38:34;;;;;;;6.40;3.28;;;16.60;99.90;;;;;;20824766;28;20097;-81
2022/07/31 02:48:36;;;;;;;7.07;2.33;;;16.70;99.90;;;;;;20820517;28;20034;-81
2022/07/31 02:58:41;;;;;;;5.00;2.10;;;16.80;99.90;;;;;;20802506;28;20268;-81
2022/07/31 03:08:44;;;;;;;11.75;4.35;;;17.00;99.90;;;;;;20836820;28;20059;-80
2022/07/31 03:18:48;;;;;;;6.35;3.65;;;17.10;99.90;;;;;;20778971;28;20030;-81
2022/07/31 03:28:49;;;;;;;2.65;2.45;;;17.10;99.90;;;;;;20768024;28;20176;-81
2022/07/31 03:38:50;;;;;;;3.37;3.00;;;17.00;99.90;;;;;;20777394;28;20053;-81
2022/07/31 03:49:13;;;;;;;5.20;2.90;;;16.90;99.90;;;;;;20771212;28;20382;-80
2022/07/31 03:59:16;;;;;;;6.70;3.08;;;16.80;99.90;;;;;;20757978;28;20049;-80
2022/07/31 04:09:19;;;;;;;7.93;4.80;;;16.70;99.90;;;;;;20765864;28;20432;-79
2022/07/31 04:19:21;;;;;;;12.38;7.00;;;16.50;99.90;;;;;;20762669;28;20037;-80
2022/07/31 04:29:27;;;;;;;18.65;9.57;;;16.40;99.90;;;;;;20759068;28;20034;-80
2022/07/31 04:39:28;;;;;;;7.53;4.63;;;16.30;99.90;;;;;;20760053;28;20770;-80
2022/07/31 04:49:31;;;;;;;6.57;3.50;;;16.20;99.90;;;;;;20760883;28;20469;-80
2022/07/31 04:59:32;;;;;;;6.30;3.42;;;16.40;99.90;;;;;;20783047;28;20095;-80
2022/07/31 05:09:34;;;;;;;10.67;3.97;;;16.60;99.90;;;;;;20772829;28;20034;-80
2022/07/31 05:19:37;;;;;;;3.80;2.80;;;16.90;99.90;;;;;;20765634;28;20216;-80
2022/07/31 05:30:08;;;;;;;4.32;3.00;;;17.20;99.90;;;;;;20766328;28;20555;-80
2022/07/31 05:40:11;;;;;;;10.00;3.33;;;17.50;99.90;;;;;;20760752;28;20112;-79
2022/07/31 05:50:51;;;;;;;4.68;2.80;;;17.80;99.90;;;;;;20607387;28;20440;-80
2022/07/31 06:00:52;;;;;;;5.50;2.85;;;18.30;99.90;;;;;;20768967;28;20076;-80
2022/07/31 06:10:55;;;;;;;5.03;2.53;;;18.60;99.90;;;;;;20774534;28;20030;-81
2022/07/31 06:20:56;;;;;;;3.92;2.90;;;19.20;99.90;;;;;;20753314;28;20034;-81
2022/07/31 06:31:00;;;;;;;7.55;2.60;;;19.50;99.90;;;;;;20751181;28;20041;-82
2022/07/31 06:41:01;;;;;;;3.47;2.70;;;20.20;99.90;;;;;;20763226;28;20551;-82
2022/07/31 06:51:11;;;;;;;6.75;2.67;;;20.40;99.90;;;;;;20760032;28;20030;-80
2022/07/31 07:01:18;;;;;;;3.25;2.53;;;20.80;99.90;;;;;;20757208;28;20116;-81
2022/07/31 07:11:19;;;;;;;4.75;2.75;;;20.90;99.90;;;;;;20767695;28;20034;-79
2022/07/31 07:21:20;;;;;;;3.10;2.20;;;21.60;99.90;;;;;;20776410;28;20026;-79
2022/07/31 07:31:22;;;;;;;2.72;2.13;;;22.90;99.90;;;;;;20773838;28;20048;-81
2022/07/31 07:41:24;;;;;;;3.53;2.15;;;23.80;99.90;;;;;;20767498;28;20033;-81
2022/07/31 07:51:25;;;;;;;6.35;2.00;;;24.40;99.90;;;;;;20756181;28;20033;-78
2022/07/31 08:01:31;;;;;;;4.63;1.88;;;24.80;99.90;;;;;;20776716;28;20025;-81
2022/07/31 08:11:43;;;;;;;5.47;2.10;;;25.30;99.90;;;;;;20815386;28;20064;-80
2022/07/31 08:21:53;;;;;;;5.33;1.77;;;25.80;99.90;;;;;;20834805;28;20119;-80
2022/07/31 08:31:55;;;;;;;5.25;2.13;;;25.90;99.90;;;;;;20835173;28;20491;-80
2022/07/31 08:42:36;;;;;;;3.45;1.58;;;26.40;99.90;;;;;;20777226;28;20128;-81
2022/07/31 08:52:40;;;;;;;1.90;1.35;;;26.90;99.90;;;;;;20792218;28;20080;-80
2022/07/31 09:03:02;;;;;;;5.10;1.60;;;27.10;99.90;;;;;;20841272;28;20037;-80
2022/07/31 09:13:23;;;;;;;4.10;1.60;;;28.10;99.90;;;;;;20785295;28;20400;-80
2022/07/31 09:23:27;;;;;;;4.55;1.30;;;28.20;99.90;;;;;;20763780;28;20060;-81
2022/07/31 09:33:29;;;;;;;6.38;1.83;;;27.90;99.90;;;;;;20764348;28;20517;-80
2022/07/31 09:43:33;;;;;;;2.45;1.25;;;28.40;99.90;;;;;;20775466;28;20077;-79
2022/07/31 09:53:42;;;;;;;5.80;1.33;;;28.50;99.90;;;;;;20775765;28;20026;-80
2022/07/31 10:04:04;;;;;;;2.45;1.27;;;28.90;99.90;;;;;;20784002;28;20415;-79
2022/07/31 10:14:11;;;;;;;4.30;1.25;;;29.90;99.90;;;;;;20772029;28;20079;-79
2022/07/31 10:24:12;;;;;;;6.43;2.13;;;31.10;98.80;;;;;;20772161;28;20034;-80
2022/07/31 10:34:14;;;;;;;2.85;0.88;;;30.70;98.60;;;;;;20771448;28;20029;-79
2022/07/31 10:45:09;;;;;;;2.53;0.90;;;30.30;99.10;;;;;;20771174;28;20042;-80
2022/07/31 10:55:45;;;;;;;1.98;0.70;;;29.50;99.30;;;;;;20733853;28;20252;-80
2022/07/31 11:05:59;;;;;;;4.72;0.95;;;29.70;98.10;;;;;;20850205;28;20040;-80
2022/07/31 11:16:32;;;;;;;2.10;1.00;;;32.20;97.30;;;;;;20842587;28;20048;-80
2022/07/31 11:26:56;;;;;;;3.08;1.02;;;30.10;97.60;;;;;;20819752;28;20033;-79
2022/07/31 11:36:57;;;;;;;2.90;0.77;;;30.80;96.40;;;;;;20837862;28;20038;-80
2022/07/31 11:46:57;;;;;;;1.77;0.90;;;31.60;95.70;;;;;;20771049;28;20092;-79
2022/07/31 11:56:59;;;;;;;2.07;1.00;;;31.10;96.70;;;;;;20760682;28;20523;-79
2022/07/31 12:07:00;;;;;;;1.45;0.80;;;30.30;96.30;;;;;;20761648;28;20360;-81
2022/07/31 12:17:03;;;;;;;2.33;0.90;;;31.60;95.90;;;;;;20792858;28;20034;-79
2022/07/31 12:27:06;;;;;;;2.75;1.10;;;31.40;94.80;;;;;;20760954;28;20042;-80
2022/07/31 12:37:15;;;;;;;3.70;1.05;;;31.50;93.50;;;;;;20726678;28;20798;-79
2022/07/31 12:47:30;;;;;;;2.65;1.02;;;31.80;95.00;;;;;;20740386;28;20048;-81
2022/07/31 12:57:31;;;;;;;2.70;1.48;;;32.00;94.50;;;;;;20761054;28;20029;-80
2022/07/31 13:07:32;;;;;;;1.35;0.68;;;31.60;94.20;;;;;;20786543;28;20113;-82
2022/07/31 13:17:33;;;;;;;3.65;1.42;;;31.80;93.00;;;;;;20792913;28;20041;-79
2022/07/31 13:27:34;;;;;;;1.10;0.90;;;32.50;93.40;;;;;;20757292;28;20038;-79
2022/07/31 13:37:34;;;;;;;3.22;0.95;;;32.90;92.60;;;;;;20793999;28;20168;-80
2022/07/31 13:47:35;;;;;;;4.78;0.80;;;32.50;92.80;;;;;;20808479;28;20025;-80
2022/07/31 13:57:36;;;;;;;3.38;0.80;;;32.00;91.50;;;;;;20804619;28;20041;-80
2022/07/31 14:07:37;;;;;;;2.72;0.80;;;31.90;92.70;;;;;;20821421;28;20037;-79
2022/07/31 14:17:38;;;;;;;3.92;0.88;;;32.40;91.40;;;;;;20825389;28;20053;-79
2022/07/31 14:27:40;;;;;;;1.92;0.65;;;32.30;90.60;;;;;;20819153;28;20587;-81
2022/07/31 14:37:41;;;;;;;2.67;0.90;;;32.10;91.90;;;;;;20791394;28;20222;-80
2022/07/31 14:47:45;;;;;;;2.05;1.00;;;30.60;92.90;;;;;;20761555;28;20045;-80
2022/07/31 14:57:45;;;;;;;1.30;0.88;;;31.00;92.20;;;;;;20776457;28;20048;-81
2022/07/31 15:07:46;;;;;;;3.25;0.90;;;31.60;92.00;;;;;;20780273;28;20037;-80
2022/07/31 15:17:47;;;;;;;1.10;0.80;;;31.50;92.20;;;;;;20780949;28;20480;-80
2022/07/31 15:27:48;;;;;;;2.17;1.20;;;31.10;92.20;;;;;;20789439;28;20042;-80
2022/07/31 15:37:49;;;;;;;4.45;1.05;;;30.70;92.60;;;;;;20800920;28;20049;-80
2022/07/31 15:47:50;;;;;;;2.90;0.80;;;30.30;93.00;;;;;;20807491;28;20042;-80
2022/07/31 15:57:51;;;;;;;1.65;0.90;;;30.80;91.80;;;;;;20840004;28;20156;-80
2022/07/31 16:07:51;;;;;;;2.33;1.02;;;30.90;92.40;;;;;;20814907;28;20072;-80
2022/07/31 16:17:52;;;;;;;2.67;1.10;;;30.30;92.30;;;;;;20801750;28;20058;-81
2022/07/31 16:27:54;;;;;;;1.83;0.85;;;30.40;92.70;;;;;;20801565;28;20030;-81
2022/07/31 16:37:55;;;;;;;4.05;1.00;;;30.30;92.50;;;;;;20801454;28;20046;-81
2022/07/31 16:47:56;;;;;;;3.03;0.88;;;30.50;92.40;;;;;;20797584;28;20041;-79
2022/07/31 16:57:57;;;;;;;1.88;0.95;;;30.30;91.50;;;;;;20800402;28;20030;-80
2022/07/31 17:07:58;;;;;;;1.30;0.83;;;30.20;92.30;;;;;;20798755;28;20179;-80
2022/07/31 17:17:59;;;;;;;3.00;1.00;;;30.00;92.40;;;;;;20833851;28;20300;-80
2022/07/31 17:28:03;;;;;;;1.42;0.85;;;29.90;92.00;;;;;;20852237;28;20064;-79
2022/07/31 17:38:04;;;;;;;2.08;0.73;;;29.80;92.30;;;;;;20830590;28;20084;-79
2022/07/31 17:48:05;;;;;;;2.47;0.80;;;29.40;92.80;;;;;;20793629;28;20047;-79
2022/07/31 17:58:06;;;;;;;2.40;1.25;;;29.20;92.90;;;;;;20821522;28;20175;-79
2022/07/31 18:08:07;;;;;;;2.58;0.70;;;29.10;93.20;;;;;;20782704;28;20509;-79
2022/07/31 18:18:08;;;;;;;5.90;0.95;;;29.00;93.10;;;;;;20788564;28;20034;-79
2022/07/31 18:28:09;;;;;;;5.05;0.80;;;28.60;93.70;;;;;;20814941;28;20044;-81
2022/07/31 18:38:10;;;;;;;2.55;0.90;;;28.30;94.30;;;;;;20887022;28;20064;-79
2022/07/31 18:48:11;;;;;;;7.53;1.48;;;27.90;94.50;;;;;;20951179;22;20041;-80
2022/07/31 18:58:12;;;;;;;2.45;1.30;;;27.30;95.50;;;;;;20852187;28;20037;-80
2022/07/31 19:08:13;;;;;;;3.05;1.60;;;27.00;96.20;;;;;;20850301;28;20037;-80
2022/07/31 19:18:14;;;;;;;4.53;1.98;;;26.50;97.40;;;;;;20804169;28;20040;-80
2022/07/31 19:28:15;;;;;;;5.40;2.10;;;25.70;98.90;;;;;;20810191;28;20034;-80
2022/07/31 19:38:16;;;;;;;7.03;1.38;;;25.30;99.30;;;;;;20854289;28;20041;-80
2022/07/31 19:48:17;;;;;;;7.10;2.30;;;24.60;99.90;;;;;;20827778;28;20049;-79
2022/07/31 19:58:19;;;;;;;;;;;24.50;99.90;;;;;;20809006;28;20248;-81
2022/07/31 20:08:21;;;;;;;2.22;1.50;;;24.10;99.90;;;;;;20768202;28;19913;-79
2022/07/31 20:18:25;;;;;;;8.35;3.42;;;23.80;99.90;;;;;;20803188;28;20025;-78
2022/07/31 20:28:26;;;;;;;5.50;1.65;;;23.30;99.90;;;;;;20802148;28;20028;-78
2022/07/31 20:38:27;;;;;;;2.20;1.20;;;22.80;99.90;;;;;;20801631;28;20086;-79
2022/07/31 20:48:31;;;;;;;8.88;2.00;;;22.80;99.90;;;;;;20809705;28;20034;-79
2022/07/31 20:58:32;;;;;;;1.88;1.65;;;22.40;99.90;;;;;;20786577;28;20395;-80
2022/07/31 21:08:33;;;;;;;3.40;1.70;;;21.90;99.90;;;;;;20806282;28;20048;-79
2022/07/31 21:18:34;;;;;;;4.13;2.03;;;21.90;99.90;;;;;;20799812;28;20029;-79
2022/07/31 21:28:35;;;;;;;4.70;2.10;;;21.80;99.90;;;;;;20795281;28;20033;-79
2022/07/31 21:38:38;;;;;;;4.38;2.53;;;21.60;99.90;;;;;;20802693;28;20507;-79
2022/07/31 21:48:40;;;;;;;5.47;2.47;;;21.50;99.90;;;;;;20908392;28;20128;-79
2022/07/31 21:58:45;;;;;;;5.40;2.05;;;21.60;99.90;;;;;;20933053;28;20025;-79
2022/07/31 22:08:47;;;;;;;3.05;2.22;;;21.60;99.90;;;;;;20832053;28;20029;-79
2022/07/31 22:18:48;;;;;;;6.53;2.20;;;21.20;99.90;;;;;;20864113;28;20017;-78
2022/07/31 22:28:50;;;;;;;4.75;2.67;;;20.90;99.90;;;;;;20891466;28;20037;-78
2022/07/31 22:38:51;;;;;;;5.38;2.72;;;20.60;99.90;;;;;;20879205;28;20029;-78
2022/07/31 22:48:53;;;;;;;10.37;3.17;;;20.20;99.90;;;;;;20856038;28;20037;-79
2022/07/31 22:58:53;;;;;;;;;;;20.00;99.90;;;;;;20832637;28;20143;-79
2022/07/31 23:08:54;;;;;;;4.70;2.80;;;19.90;99.90;;;;;;20847885;28;20304;-79
2022/07/31 23:18:55;;;;;;;3.90;2.50;;;20.30;99.90;;;;;;20849056;28;20064;-78
2022/07/31 23:28:56;;;;;;;5.70;3.47;;;19.90;99.90;;;;;;20850443;28;20030;-79
2022/07/31 23:38:57;;;;;;;5.60;2.73;;;19.60;99.90;;;;;;20849457;28;20029;-79
2022/07/31 23:48:58;;;;;;;5.10;2.90;;;19.50;99.90;;;;;;20829174;28;20029;-79
2022/07/31 23:58:59;;;;;;;8.27;2.50;;;19.80;99.90;;;;;;20844439;28;20567;-79
